createdAt,value
2022-10-05T00:02:18.218Z,100056.97
2022-10-05T00:04:45.251Z,100061.47
2022-10-05T00:07:15.250Z,100048.53
2022-10-05T00:09:44.769Z,100051.41
2022-10-05T00:12:16.848Z,100050.31
2022-10-05T00:14:44.917Z,100043.50
2022-10-05T00:17:16.092Z,100042.84
2022-10-05T00:19:43.693Z,100035.19
2022-10-05T00:22:14.153Z,100035.09
2022-10-05T00:24:40.733Z,100031.47
2022-10-05T00:27:17.460Z,100038.22
2022-10-05T00:29:44.286Z,100029.00
2022-10-05T00:32:10.826Z,100028.06
2022-10-05T00:34:38.108Z,100032.75
2022-10-05T00:37:06.444Z,100029.84
2022-10-05T00:39:34.262Z,100027.13
2022-10-05T00:42:20.695Z,100029.50
2022-10-05T00:44:52.284Z,100030.09
2022-10-05T00:47:34.500Z,100037.13
2022-10-05T00:50:32.564Z,100026.25
2022-10-05T00:53:08.737Z,100035.38
2022-10-05T00:55:45.952Z,100027.50
2022-10-05T00:58:21.904Z,100033.38
2022-10-05T01:00:58.513Z,100034.09
2022-10-05T01:03:34.422Z,100029.91
2022-10-05T01:06:12.591Z,100023.66
2022-10-05T01:08:48.856Z,100022.28
2022-10-05T01:11:20.234Z,100029.63
2022-10-05T01:13:57.698Z,100031.72
2022-10-05T01:16:30.149Z,100026.25
2022-10-05T01:19:05.949Z,100024.84
2022-10-05T01:21:38.924Z,100028.50
2022-10-05T01:24:38.146Z,100020.69
2022-10-05T01:27:16.069Z,100022.41
2022-10-05T01:29:49.619Z,100029.91
2022-10-05T01:32:25.018Z,100010.75
2022-10-05T01:34:59.874Z,100014.19
2022-10-05T01:37:33.052Z,100009.94
2022-10-05T01:40:07.676Z,100002.56
2022-10-05T01:42:42.186Z,100005.28
2022-10-05T01:45:19.491Z,100001.31
2022-10-05T01:47:49.657Z,99998.41
2022-10-05T01:50:25.642Z,99999.44
2022-10-05T01:53:00.760Z,99999.97
2022-10-05T01:55:34.990Z,99994.59
2022-10-05T01:58:11.254Z,99988.69
2022-10-05T02:00:48.943Z,99987.53
2022-10-05T02:03:18.856Z,99990.28
2022-10-05T02:05:52.282Z,99981.94
2022-10-05T02:08:24.178Z,99977.78
2022-10-05T02:10:57.857Z,99981.88
2022-10-05T02:13:30.677Z,99980.22
2022-10-05T02:16:03.286Z,99972.09
2022-10-05T02:18:35.269Z,99972.22
2022-10-05T02:21:03.780Z,99974.66
2022-10-05T02:23:34.399Z,99963.06
2022-10-05T02:26:02.033Z,99976.84
2022-10-05T02:28:33.469Z,99965.81
2022-10-05T02:31:06.822Z,99959.81
2022-10-05T02:33:34.539Z,99965.91
2022-10-05T02:36:02.180Z,99972.31
2022-10-05T02:38:38.094Z,99976.09
2022-10-05T02:41:14.351Z,99970.06
2022-10-05T02:43:49.888Z,99971.41
2022-10-05T02:46:28.887Z,99967.84
2022-10-05T02:49:07.000Z,99963.25
2022-10-05T02:51:41.565Z,99957.88
2022-10-05T02:54:15.404Z,99956.72
2022-10-05T02:56:52.699Z,99951.06
2022-10-05T02:59:26.008Z,99951.22
2022-10-05T03:02:00.369Z,99950.34
2022-10-05T03:04:34.667Z,99952.41
2022-10-05T03:07:15.928Z,99953.22
2022-10-05T03:09:51.604Z,99951.03
2022-10-05T03:12:30.787Z,99949.13
2022-10-05T03:15:09.025Z,99946.69
2022-10-05T03:17:49.685Z,99934.97
2022-10-05T03:20:29.206Z,99935.50
2022-10-05T03:22:58.677Z,99938.75
2022-10-05T03:25:41.200Z,99931.59
2022-10-05T03:28:15.555Z,99938.56
2022-10-05T03:30:48.447Z,99930.53
2022-10-05T03:33:22.628Z,99930.38
2022-10-05T03:35:57.635Z,99922.69
2022-10-05T03:38:32.215Z,99921.94
2022-10-05T03:41:07.297Z,99918.69
2022-10-05T03:43:53.380Z,99922.06
2022-10-05T03:46:32.466Z,99910.50
2022-10-05T03:49:08.485Z,99906.38
2022-10-05T03:51:37.651Z,99900.47
2022-10-05T03:54:13.331Z,99896.63
2022-10-05T03:56:47.974Z,99897.38
2022-10-05T03:59:18.379Z,99897.50
2022-10-05T04:01:52.034Z,99900.13
2022-10-05T04:04:29.145Z,99909.44
2022-10-05T04:06:57.839Z,99894.28
2022-10-05T04:09:28.188Z,99896.69
2022-10-05T04:12:01.637Z,99892.50
2022-10-05T04:14:33.837Z,99893.03
2022-10-05T04:17:05.911Z,99898.38
2022-10-05T04:19:39.395Z,99899.38
2022-10-05T04:22:12.449Z,99905.25
2022-10-05T04:24:43.956Z,99898.81
2022-10-05T04:27:16.124Z,99896.56
2022-10-05T04:29:49.715Z,99891.44
2022-10-05T04:32:29.937Z,99894.94
2022-10-05T04:35:13.515Z,99895.56
2022-10-05T04:37:49.835Z,99880.88
2022-10-05T04:40:31.957Z,99887.06
2022-10-05T04:43:09.442Z,99887.59
2022-10-05T04:45:50.816Z,99886.59
2022-10-05T04:48:39.429Z,99894.69
2022-10-05T04:51:20.667Z,99888.81
2022-10-05T04:53:54.339Z,99891.81
2022-10-05T04:56:28.603Z,99890.41
2022-10-05T04:59:06.895Z,99905.84
2022-10-05T05:01:47.210Z,99898.13
2022-10-05T05:04:33.427Z,99900.38
2022-10-05T05:07:13.764Z,99905.97
2022-10-05T05:10:10.122Z,99902.50
2022-10-05T05:12:48.934Z,99901.13
2022-10-05T05:15:28.829Z,99907.25
2022-10-05T05:18:13.002Z,99898.81
2022-10-05T05:20:54.301Z,99897.69
2022-10-05T05:23:28.990Z,99897.06
2022-10-05T05:26:07.733Z,99901.78
2022-10-05T05:28:43.338Z,99904.41
2022-10-05T05:31:19.186Z,99896.09
2022-10-05T05:33:58.668Z,99898.91
2022-10-05T05:36:35.663Z,99897.31
2022-10-05T05:39:22.035Z,99903.28
2022-10-05T05:41:58.703Z,99892.34
2022-10-05T05:44:27.108Z,99901.69
2022-10-05T05:47:03.863Z,99892.19
2022-10-05T05:49:41.949Z,99905.44
2022-10-05T05:52:16.663Z,99908.88
2022-10-05T05:54:49.520Z,99900.06
2022-10-05T05:57:21.767Z,99898.53
2022-10-05T06:00:00.665Z,99898.03
2022-10-05T06:02:31.782Z,99900.06
2022-10-05T06:05:08.701Z,99892.56
2022-10-05T06:07:38.063Z,99894.16
2022-10-05T06:10:19.223Z,99889.44
2022-10-05T06:12:50.566Z,99894.06
2022-10-05T06:15:32.630Z,99903.91
2022-10-05T06:18:03.093Z,99892.31
2022-10-05T06:20:35.851Z,99902.28
2022-10-05T06:23:11.889Z,99904.38
2022-10-05T06:25:51.792Z,99902.53
2022-10-05T06:28:18.584Z,99910.09
2022-10-05T06:30:55.036Z,99903.25
2022-10-05T06:33:33.514Z,99907.50
2022-10-05T06:36:13.700Z,99909.75
2022-10-05T06:38:59.682Z,99911.22
2022-10-05T06:41:41.016Z,99907.88
2022-10-05T06:44:14.250Z,99904.94
2022-10-05T06:46:51.292Z,99896.66
2022-10-05T06:49:21.651Z,99894.03
2022-10-05T06:51:55.001Z,99905.78
2022-10-05T06:54:34.456Z,99893.59
2022-10-05T06:57:10.506Z,99890.81
2022-10-05T06:59:46.464Z,99891.69
2022-10-05T07:02:21.569Z,99904.38
2022-10-05T07:05:19.466Z,99897.97
2022-10-05T07:07:53.585Z,99899.09
2022-10-05T07:10:30.703Z,99896.44
2022-10-05T07:13:08.679Z,99895.50
2022-10-05T07:15:42.439Z,99893.66
2022-10-05T07:18:30.366Z,99895.66
2022-10-05T07:21:03.999Z,99897.50
2022-10-05T07:23:45.287Z,99896.53
2022-10-05T07:26:18.486Z,99902.06
2022-10-05T07:28:48.476Z,99891.69
2022-10-05T07:31:26.143Z,99906.69
2022-10-05T07:34:01.145Z,99891.47
2022-10-05T07:36:37.751Z,99905.25
2022-10-05T07:39:13.592Z,99903.25
2022-10-05T07:41:43.888Z,99912.47
2022-10-05T07:44:19.972Z,99912.59
2022-10-05T07:46:53.747Z,99908.25
2022-10-05T07:49:31.901Z,99912.06
2022-10-05T07:52:03.243Z,99903.41
2022-10-05T07:54:37.987Z,99908.59
2022-10-05T07:57:14.403Z,99912.28
2022-10-05T07:59:47.908Z,99913.56
2022-10-05T08:02:32.567Z,99918.06
2022-10-05T08:05:05.157Z,99905.59
2022-10-05T08:07:35.092Z,99915.09
2022-10-05T08:10:18.011Z,99902.38
2022-10-05T08:13:00.008Z,99904.69
2022-10-05T08:15:33.149Z,99904.66
2022-10-05T08:18:02.764Z,99906.78
2022-10-05T08:20:40.095Z,99897.66
2022-10-05T08:23:18.437Z,99892.78
2022-10-05T08:25:54.939Z,99891.63
2022-10-05T08:28:26.495Z,99894.22
2022-10-05T08:31:03.766Z,99890.03
2022-10-05T08:33:40.723Z,99896.56
2022-10-05T08:36:11.207Z,99892.22
2022-10-05T08:38:39.591Z,99888.88
2022-10-05T08:41:26.077Z,99891.75
2022-10-05T08:44:13.401Z,99888.13
2022-10-05T08:47:08.238Z,99886.16
2022-10-05T08:49:58.108Z,99895.50
2022-10-05T08:52:28.961Z,99891.06
2022-10-05T08:55:28.371Z,99889.06
2022-10-05T08:58:40.769Z,99890.94
2022-10-05T09:01:17.910Z,99889.66
2022-10-05T09:04:09.266Z,99892.31
2022-10-05T09:07:14.129Z,99891.47
2022-10-05T09:10:11.011Z,99883.84
2022-10-05T09:13:07.722Z,99877.34
2022-10-05T09:16:15.281Z,99882.19
2022-10-05T09:19:19.461Z,99878.06
2022-10-05T09:21:56.462Z,99879.84
2022-10-05T09:24:27.939Z,99871.41
2022-10-05T09:27:08.830Z,99868.88
2022-10-05T09:30:05.095Z,99877.41
2022-10-05T09:33:19.514Z,99875.44
2022-10-05T09:36:24.678Z,99873.31
2022-10-05T09:39:33.829Z,99872.84
2022-10-05T09:42:25.997Z,99859.00
2022-10-05T09:45:29.734Z,99865.78
2022-10-05T09:48:43.760Z,99862.88
2022-10-05T09:51:43.310Z,99864.34
2022-10-05T09:54:48.997Z,99857.34
2022-10-05T09:57:37.156Z,99871.31
2022-10-05T10:00:22.357Z,99855.13
2022-10-05T10:03:33.580Z,99858.03
2022-10-05T10:06:20.170Z,99862.31
2022-10-05T10:08:59.353Z,99847.47
2022-10-05T10:11:46.166Z,99846.06
2022-10-05T10:14:58.237Z,99848.03
2022-10-05T10:17:54.965Z,99856.56
2022-10-05T10:20:35.853Z,99842.59
2022-10-05T10:23:27.507Z,99849.06
2022-10-05T10:26:25.152Z,99849.78
2022-10-05T10:29:42.038Z,99847.47
2022-10-05T10:32:26.281Z,99850.38
2022-10-05T10:35:20.285Z,99846.69
2022-10-05T10:38:27.548Z,99847.97
2022-10-05T10:41:27.595Z,99846.69
2022-10-05T10:44:32.855Z,99847.53
2022-10-05T10:47:36.995Z,99847.81
2022-10-05T10:50:28.689Z,99846.75
2022-10-05T10:53:11.951Z,99838.34
2022-10-05T10:55:45.388Z,99827.09
2022-10-05T10:58:41.564Z,99832.44
2022-10-05T11:01:25.687Z,99835.41
2022-10-05T11:04:32.096Z,99829.75
2022-10-05T11:07:22.983Z,99822.81
2022-10-05T11:10:25.320Z,99818.66
2022-10-05T11:13:17.234Z,99811.38
2022-10-05T11:16:21.458Z,99818.22
2022-10-05T11:19:05.858Z,99805.88
2022-10-05T11:21:41.469Z,99803.00
2022-10-05T11:24:44.548Z,99793.59
2022-10-05T11:27:36.580Z,99798.16
2022-10-05T11:30:32.572Z,99787.63
2022-10-05T11:33:31.775Z,99783.88
2022-10-05T11:36:25.696Z,99765.84
2022-10-05T11:39:28.011Z,99765.69
2022-10-05T11:42:32.708Z,99755.38
2022-10-05T11:45:22.087Z,99748.88
2022-10-05T11:48:37.279Z,99746.81
2022-10-05T11:51:30.732Z,99732.28
2022-10-05T11:54:15.228Z,99726.84
2022-10-05T11:56:49.511Z,99723.34
2022-10-05T11:59:23.668Z,99723.19
2022-10-05T12:01:57.656Z,99717.25
2022-10-05T12:04:32.067Z,99715.00
2022-10-05T12:07:09.396Z,99709.31
2022-10-05T12:09:50.242Z,99695.00
2022-10-05T12:12:23.282Z,99705.06
2022-10-05T12:14:55.258Z,99689.59
2022-10-05T12:17:32.915Z,99701.31
2022-10-05T12:20:06.037Z,99690.31
2022-10-05T12:22:37.752Z,99679.66
2022-10-05T12:25:21.043Z,99671.50
2022-10-05T12:27:51.539Z,99677.97
2022-10-05T12:30:25.033Z,99660.16
2022-10-05T12:33:02.462Z,99658.94
2022-10-05T12:35:49.445Z,99665.56
2022-10-05T12:38:23.727Z,99640.88
2022-10-05T12:41:00.229Z,99648.56
2022-10-05T12:43:34.177Z,99634.91
2022-10-05T12:46:12.979Z,99628.94
2022-10-05T12:49:07.861Z,99627.22
2022-10-05T12:51:41.966Z,99627.38
2022-10-05T12:54:19.023Z,99621.34
2022-10-05T12:56:53.214Z,99619.38
2022-10-05T12:59:31.839Z,99606.09
2022-10-05T13:02:06.407Z,99609.22
2022-10-05T13:04:45.269Z,99609.75
2022-10-05T13:07:30.693Z,99602.50
2022-10-05T13:10:07.562Z,99600.22
2022-10-05T13:12:44.408Z,99591.94
2022-10-05T13:15:19.587Z,99587.59
2022-10-05T13:17:56.611Z,99585.84
2022-10-05T13:20:32.906Z,99577.22
2022-10-05T13:23:06.641Z,99570.75
2022-10-05T13:25:38.588Z,99569.59
2022-10-05T13:28:16.941Z,99558.88
2022-10-05T13:30:54.227Z,99559.00
2022-10-05T13:33:28.556Z,99566.94
2022-10-05T13:36:04.816Z,99562.47
2022-10-05T13:38:45.028Z,99556.94
2022-10-05T13:41:21.779Z,99559.41
2022-10-05T13:43:59.748Z,99554.84
2022-10-05T13:46:36.663Z,99561.72
2022-10-05T13:49:16.526Z,99547.13
2022-10-05T13:51:49.872Z,99545.91
2022-10-05T13:54:23.020Z,99552.03
2022-10-05T13:56:56.435Z,99550.00
2022-10-05T13:59:29.205Z,99556.03
2022-10-05T14:01:58.942Z,99545.84
2022-10-05T14:04:29.843Z,99538.94
2022-10-05T14:07:20.589Z,99541.53
2022-10-05T14:09:49.966Z,99536.72
2022-10-05T14:12:21.315Z,99543.09
2022-10-05T14:14:50.220Z,99527.34
2022-10-05T14:17:32.188Z,99543.13
2022-10-05T14:20:01.844Z,99550.56
2022-10-05T14:22:29.850Z,99542.88
2022-10-05T14:25:13.464Z,99541.88
2022-10-05T14:27:50.331Z,99538.28
2022-10-05T14:30:20.648Z,99543.47
2022-10-05T14:32:50.902Z,99548.63
2022-10-05T14:35:19.650Z,99549.28
2022-10-05T14:37:58.154Z,99547.75
2022-10-05T14:40:28.721Z,99547.72
2022-10-05T14:42:56.145Z,99544.81
2022-10-05T14:45:24.116Z,99551.00
2022-10-05T14:47:53.190Z,99552.38
2022-10-05T14:50:22.271Z,99560.72
2022-10-05T14:53:07.918Z,99548.63
2022-10-05T14:55:47.069Z,99559.34
2022-10-05T14:58:25.976Z,99558.66
2022-10-05T15:01:00.911Z,99561.28
2022-10-05T15:03:38.156Z,99559.00
2022-10-05T15:06:13.992Z,99571.34
2022-10-05T15:08:52.344Z,99561.72
2022-10-05T15:11:30.054Z,99567.28
2022-10-05T15:13:56.582Z,99569.88
2022-10-05T15:16:29.115Z,99574.94
2022-10-05T15:19:06.260Z,99571.81
2022-10-05T15:21:39.120Z,99580.31
2022-10-05T15:24:15.690Z,99586.16
2022-10-05T15:26:48.442Z,99582.72
2022-10-05T15:29:27.930Z,99592.94
2022-10-05T15:32:04.484Z,99599.47
2022-10-05T15:34:40.240Z,99595.50
2022-10-05T15:37:14.837Z,99591.44
2022-10-05T15:39:49.274Z,99597.31
2022-10-05T15:42:19.719Z,99598.13
2022-10-05T15:45:04.315Z,99601.16
2022-10-05T15:47:44.116Z,99610.84
2022-10-05T15:50:19.517Z,99608.56
2022-10-05T15:52:54.318Z,99618.63
2022-10-05T15:55:33.999Z,99629.28
2022-10-05T15:58:20.079Z,99635.19
2022-10-05T16:00:50.239Z,99630.47
2022-10-05T16:03:25.870Z,99631.47
2022-10-05T16:05:59.485Z,99642.16
2022-10-05T16:08:50.573Z,99650.09
2022-10-05T16:11:26.006Z,99649.72
2022-10-05T16:14:03.473Z,99659.59
2022-10-05T16:16:38.125Z,99652.16
2022-10-05T16:19:13.734Z,99663.81
2022-10-05T16:21:50.795Z,99666.75
2022-10-05T16:24:39.921Z,99673.84
2022-10-05T16:27:17.573Z,99680.56
2022-10-05T16:29:51.314Z,99682.66
2022-10-05T16:32:22.376Z,99687.94
2022-10-05T16:35:04.315Z,99691.25
2022-10-05T16:37:38.598Z,99707.34
2022-10-05T16:40:18.028Z,99705.06
2022-10-05T16:42:57.697Z,99705.06
2022-10-05T16:45:44.728Z,99709.34
2022-10-05T16:48:19.714Z,99718.22
2022-10-05T16:51:02.170Z,99718.19
2022-10-05T16:53:36.262Z,99736.97
2022-10-05T16:56:07.059Z,99733.84
2022-10-05T16:58:52.596Z,99742.03
2022-10-05T17:01:32.107Z,99756.06
2022-10-05T17:04:14.241Z,99765.25
2022-10-05T17:06:53.867Z,99769.16
2022-10-05T17:09:50.555Z,99777.31
2022-10-05T17:12:27.766Z,99784.34
2022-10-05T17:15:16.392Z,99786.47
2022-10-05T17:18:04.565Z,99797.28
2022-10-05T17:20:53.648Z,99794.81
2022-10-05T17:23:31.555Z,99804.84
2022-10-05T17:26:15.879Z,99821.53
2022-10-05T17:28:59.224Z,99816.03
2022-10-05T17:31:29.162Z,99829.78
2022-10-05T17:34:24.858Z,99832.59
2022-10-05T17:36:55.591Z,99837.63
2022-10-05T17:39:23.552Z,99832.94
2022-10-05T17:41:50.546Z,99845.34
2022-10-05T17:44:20.195Z,99839.44
2022-10-05T17:46:50.081Z,99844.97
2022-10-05T17:49:25.486Z,99843.94
2022-10-05T17:52:04.587Z,99860.75
2022-10-05T17:54:52.587Z,99865.16
2022-10-05T17:57:22.035Z,99863.66
2022-10-05T17:59:57.835Z,99877.47
2022-10-05T18:02:40.326Z,99880.03
2022-10-05T18:05:21.631Z,99883.41
2022-10-05T18:08:23.075Z,99889.69
2022-10-05T18:11:13.059Z,99884.25
2022-10-05T18:13:44.447Z,99872.19
2022-10-05T18:16:11.265Z,99875.44
2022-10-05T18:18:58.327Z,99889.63
2022-10-05T18:21:35.353Z,99887.03
2022-10-05T18:24:27.501Z,99877.09
2022-10-05T18:27:04.435Z,99884.59
2022-10-05T18:29:48.353Z,99888.06
2022-10-05T18:32:24.836Z,99884.25
2022-10-05T18:35:01.857Z,99893.25
2022-10-05T18:37:42.496Z,99895.19
2022-10-05T18:40:26.566Z,99895.31
2022-10-05T18:43:01.338Z,99885.53
2022-10-05T18:45:37.732Z,99891.13
2022-10-05T18:48:18.039Z,99893.91
2022-10-05T18:50:53.549Z,99902.53
2022-10-05T18:53:29.362Z,99895.38
2022-10-05T18:56:01.610Z,99898.72
2022-10-05T18:58:35.927Z,99901.22
2022-10-05T19:01:18.973Z,99902.41
2022-10-05T19:03:58.483Z,99905.56
2022-10-05T19:06:29.559Z,99898.25
2022-10-05T19:09:08.937Z,99892.09
2022-10-05T19:11:43.072Z,99890.66
2022-10-05T19:14:21.475Z,99890.66
2022-10-05T19:17:01.021Z,99897.53
2022-10-05T19:19:39.803Z,99895.41
2022-10-05T19:22:19.821Z,99893.91
2022-10-05T19:25:08.081Z,99903.06
2022-10-05T19:27:45.171Z,99897.97
2022-10-05T19:30:19.015Z,99902.50
2022-10-05T19:33:10.341Z,99901.88
2022-10-05T19:35:48.323Z,99909.56
2022-10-05T19:38:25.306Z,99911.38
2022-10-05T19:41:00.086Z,99916.56
2022-10-05T19:43:42.297Z,99921.75
2022-10-05T19:46:19.957Z,99917.63
2022-10-05T19:48:49.795Z,99919.59
2022-10-05T19:51:26.799Z,99912.75
2022-10-05T19:53:57.311Z,99914.25
2022-10-05T19:56:25.634Z,99917.84
2022-10-05T19:58:53.561Z,99919.53
2022-10-05T20:01:26.135Z,99916.22
2022-10-05T20:03:54.004Z,99925.25
2022-10-05T20:06:21.436Z,99926.28
2022-10-05T20:08:53.546Z,99927.19
2022-10-05T20:11:23.167Z,99926.22
2022-10-05T20:14:24.794Z,99919.13
2022-10-05T20:17:25.723Z,99923.69
2022-10-05T20:19:52.558Z,99929.53
2022-10-05T20:22:31.105Z,99935.53
2022-10-05T20:24:59.798Z,99935.59
2022-10-05T20:27:43.978Z,99942.78
2022-10-05T20:30:11.991Z,99925.56
2022-10-05T20:32:38.692Z,99928.03
2022-10-05T20:35:06.547Z,99938.31
2022-10-05T20:37:34.134Z,99952.22
2022-10-05T20:40:03.100Z,99948.38
2022-10-05T20:42:29.935Z,99968.19
2022-10-05T20:44:57.829Z,99966.59
2022-10-05T20:47:25.208Z,99966.22
2022-10-05T20:49:51.807Z,99969.63
2022-10-05T20:52:18.557Z,99980.00
2022-10-05T20:57:12.889Z,99972.41
2022-10-05T20:59:39.837Z,99980.81
2022-10-05T21:02:08.124Z,99988.53
2022-10-05T21:04:40.901Z,99980.75
2022-10-05T21:07:08.614Z,99982.34
2022-10-05T21:09:35.261Z,99990.75
2022-10-05T21:12:01.796Z,99989.44
2022-10-05T21:14:28.633Z,99987.63
2022-10-05T21:16:55.153Z,99993.06
2022-10-05T21:19:23.213Z,99996.13
2022-10-05T21:21:49.745Z,100001.84
2022-10-05T21:24:18.688Z,100005.78
2022-10-05T21:26:45.259Z,100003.16
2022-10-05T21:29:12.962Z,100010.47
2022-10-05T21:31:39.900Z,99999.44
2022-10-05T21:34:07.842Z,100006.69
2022-10-05T21:36:35.905Z,100010.53
2022-10-05T21:39:03.483Z,100011.16
2022-10-05T21:41:30.017Z,100003.41
2022-10-05T21:43:56.735Z,100025.00
2022-10-05T21:46:24.536Z,100010.97
2022-10-05T21:48:51.430Z,100020.00
2022-10-05T21:51:19.200Z,100024.75
2022-10-05T21:53:51.889Z,100027.78
2022-10-05T21:56:22.188Z,100035.63
2022-10-05T21:58:50.367Z,100034.72
2022-10-05T22:01:22.278Z,100044.84
2022-10-05T22:03:49.308Z,100085.22
2022-10-05T22:06:16.007Z,100108.47
2022-10-05T22:08:42.643Z,100091.47
2022-10-05T22:11:12.643Z,100121.97
2022-10-05T22:13:41.461Z,100112.81
2022-10-05T22:16:08.087Z,100119.91
2022-10-05T22:18:36.901Z,100120.38
2022-10-05T22:21:05.619Z,100130.34
2022-10-05T22:23:32.393Z,100130.94
2022-10-05T22:25:59.229Z,100150.44
2022-10-05T22:28:27.884Z,100150.31
2022-10-05T22:30:55.228Z,100162.41
2022-10-05T22:33:21.769Z,100169.63
2022-10-05T22:35:48.623Z,100163.41
2022-10-05T22:38:15.279Z,100156.59
2022-10-05T22:40:43.947Z,100183.06
2022-10-05T22:43:11.970Z,100184.13
2022-10-05T22:45:39.937Z,100183.63
2022-10-05T22:48:06.538Z,100187.09
2022-10-05T22:50:33.437Z,100199.78
2022-10-05T22:53:00.285Z,100199.72
2022-10-05T22:55:26.803Z,100198.84
2022-10-05T22:57:58.405Z,100209.00
2022-10-05T23:00:40.443Z,100205.53
2022-10-05T23:03:15.358Z,100212.66
2022-10-05T23:05:41.874Z,100206.88
2022-10-05T23:08:08.473Z,100223.94
2022-10-05T23:10:34.973Z,100221.66
2022-10-05T23:13:01.875Z,100219.97
2022-10-05T23:15:28.402Z,100244.00
2022-10-05T23:17:54.907Z,100254.69
2022-10-05T23:20:23.046Z,100315.06
2022-10-05T23:22:49.657Z,100313.13
2022-10-05T23:25:16.163Z,100325.97
2022-10-05T23:27:42.997Z,100332.84
2022-10-05T23:30:11.331Z,100352.78
2022-10-05T23:32:38.824Z,100352.81
2022-10-05T23:35:07.303Z,100352.59
2022-10-05T23:37:38.279Z,100358.84
2022-10-05T23:40:07.119Z,100354.53
2022-10-05T23:42:33.685Z,100352.84
2022-10-05T23:45:00.178Z,100365.88
2022-10-05T23:47:26.748Z,100354.09
2022-10-05T23:49:53.613Z,100349.38
2022-10-05T23:52:20.177Z,100355.28
2022-10-05T23:54:48.130Z,100358.47
2022-10-05T23:57:15.774Z,100352.25
2022-10-05T23:59:42.279Z,100355.03
